Time;durP1;ratioP1;P1;durP2;ratioP2;P2;SDS_P1;SDS_P2;PMS_P1;PMS_P2;Temp;Humidity;BMP_temperature;BMP_pressure;BME280_temperature;BME280_humidity;BME280_pressure;Samples;Min_cycle;Max_cycle;Signal;HPM_P1;HPM_P2
2022/04/09 00:00:00;;;;;;;4.57;4.07;;;;;;;14.25;56.07;98548.94;4786090;30;20294;-59
2022/04/09 00:02:28;;;;;;;6.57;4.87;;;;;;;14.18;55.97;98548.16;4786550;29;20586;-59
2022/04/09 00:04:55;;;;;;;6.85;5.22;;;;;;;14.28;56.00;98560.09;4785143;30;20473;-59
2022/04/09 00:07:22;;;;;;;7.13;5.67;;;;;;;14.34;56.02;98561.78;4786012;30;20588;-59
2022/04/09 00:09:49;;;;;;;8.27;6.00;;;;;;;14.38;55.40;98566.88;4786249;29;20295;-58
2022/04/09 00:12:16;;;;;;;8.23;5.07;;;;;;;14.35;55.78;98572.09;4785878;30;20214;-58
2022/04/09 00:14:43;;;;;;;5.80;4.60;;;;;;;14.27;55.82;98560.97;4785132;29;20201;-58
2022/04/09 00:17:10;;;;;;;5.20;4.63;;;;;;;14.32;56.04;98566.09;4785876;29;20200;-58
2022/04/09 00:19:38;;;;;;;5.70;4.33;;;;;;;14.34;55.75;98551.44;4785939;29;20710;-58
2022/04/09 00:22:05;;;;;;;5.80;5.20;;;;;;;14.26;55.75;98532.56;4785756;29;20216;-58
2022/04/09 00:24:32;;;;;;;7.70;4.20;;;;;;;14.26;56.14;98548.06;4785891;29;20234;-58
2022/04/09 00:26:59;;;;;;;9.23;4.97;;;;;;;14.14;56.22;98549.97;4785655;29;20681;-57
2022/04/09 00:29:26;;;;;;;7.67;6.50;;;;;;;14.21;56.23;98550.72;4785676;29;20677;-58
2022/04/09 00:31:53;;;;;;;7.77;6.13;;;;;;;14.14;56.57;98538.78;4785678;29;20575;-58
2022/04/09 00:34:19;;;;;;;9.73;5.27;;;;;;;14.26;56.35;98556.66;4785500;29;20209;-58
2022/04/09 00:36:48;;;;;;;5.00;4.33;;;;;;;14.29;56.46;98559.22;4785706;29;20244;-58
2022/04/09 00:39:15;;;;;;;5.23;4.10;;;;;;;14.31;55.80;98565.22;4785472;29;20298;-58
2022/04/09 00:41:47;;;;;;;5.37;4.10;;;;;;;14.34;56.10;98564.38;4785401;29;20209;-58
2022/04/09 00:44:17;;;;;;;5.17;4.67;;;;;;;14.36;55.98;98563.47;4783321;29;20261;-58
2022/04/09 00:46:45;;;;;;;6.23;4.40;;;;;;;14.40;55.88;98565.13;4780875;29;20201;-58
2022/04/09 00:49:13;;;;;;;5.97;5.00;;;;;;;14.39;56.39;98575.50;4795586;29;20205;-60
2022/04/09 00:51:42;;;;;;;5.90;4.83;;;;;;;14.37;56.24;98569.47;4802640;29;20332;-62
2022/04/09 00:54:13;;;;;;;7.83;4.53;;;;;;;14.26;56.11;98554.09;4796002;29;20209;-61
2022/04/09 00:56:41;;;;;;;5.55;4.60;;;;;;;14.42;56.58;98567.69;4797484;29;20471;-61
2022/04/09 00:59:11;;;;;;;5.27;4.60;;;;;;;14.49;56.08;98575.34;4792216;29;20199;-61
2022/04/09 01:01:39;;;;;;;6.67;4.83;;;;;;;14.52;56.39;98567.53;4785287;29;20566;-61
2022/04/09 01:04:08;;;;;;;9.33;5.37;;;;;;;14.53;56.29;98569.22;4785273;30;20762;-61
2022/04/09 01:06:36;;;;;;;6.30;4.87;;;;;;;14.45;56.03;98563.31;4785319;30;20674;-61
2022/04/09 01:09:04;;;;;;;5.87;5.37;;;;;;;14.40;56.40;98567.72;4785188;29;20292;-61
2022/04/09 01:11:32;;;;;;;6.63;4.97;;;;;;;14.41;56.55;98584.94;4785231;30;20666;-61
2022/04/09 01:13:59;;;;;;;5.97;5.20;;;;;;;14.44;56.69;98578.88;4785154;30;20294;-61
2022/04/09 01:16:29;;;;;;;8.30;5.17;;;;;;;14.43;56.28;98580.59;4785408;30;20286;-61
2022/04/09 01:18:55;;;;;;;7.10;5.00;;;;;;;14.41;56.49;98565.97;4785199;30;20263;-61
2022/04/09 01:21:25;;;;;;;7.00;5.53;;;;;;;14.22;57.10;98562.75;4785086;30;20212;-61
2022/04/09 01:23:53;;;;;;;5.63;4.77;;;;;;;14.12;57.37;98561.16;4785170;30;20236;-62
2022/04/09 01:26:21;;;;;;;8.77;5.47;;;;;;;14.18;57.47;98571.41;4786223;29;20246;-61
2022/04/09 01:28:48;;;;;;;5.33;4.70;;;;;;;14.17;57.78;98565.38;4788607;29;20198;-61
2022/04/09 01:31:16;;;;;;;5.87;5.00;;;;;;;14.11;57.64;98549.13;4788584;30;20201;-61
2022/04/09 01:33:43;;;;;;;8.63;5.77;;;;;;;14.19;58.12;98567.97;4788587;30;20213;-61
2022/04/09 01:36:10;;;;;;;8.67;5.73;;;;;;;14.09;58.46;98568.97;4788659;30;20662;-61
2022/04/09 01:38:39;;;;;;;12.93;5.60;;;;;;;14.02;58.97;98569.91;4788311;30;20332;-60
2022/04/09 01:41:07;;;;;;;8.47;5.80;;;;;;;13.88;59.76;98558.88;4788391;30;20206;-61
2022/04/09 01:43:35;;;;;;;8.27;6.00;;;;;;;13.79;59.75;98546.94;4788891;30;20213;-61
2022/04/09 01:46:02;;;;;;;7.00;5.33;;;;;;;13.87;59.54;98550.28;4788843;29;20230;-60
2022/04/09 01:48:29;;;;;;;8.43;5.90;;;;;;;13.84;59.66;98555.50;4788575;30;20201;-61
2022/04/09 01:50:56;;;;;;;6.20;5.30;;;;;;;13.86;59.98;98550.31;4788606;30;20205;-61
2022/04/09 01:53:22;;;;;;;9.93;6.13;;;;;;;13.85;59.44;98541.72;4788459;29;20198;-61
2022/04/09 01:55:49;;;;;;;10.03;5.67;;;;;;;13.55;59.84;98499.03;4788536;30;20912;-61
2022/04/09 01:58:18;;;;;;;10.60;5.83;;;;;;;13.91;60.22;98551.09;4788309;30;20323;-61
2022/04/09 02:00:45;;;;;;;7.33;6.23;;;;;;;13.75;60.27;98558.19;4788351;30;20209;-61
2022/04/09 02:03:11;;;;;;;10.93;6.53;;;;;;;13.44;61.17;98562.81;4788384;29;20295;-61
2022/04/09 02:05:38;;;;;;;11.93;6.13;;;;;;;13.37;61.20;98560.31;4788027;30;20798;-61
2022/04/09 02:08:07;;;;;;;15.00;10.23;;;;;;;13.39;61.29;98572.34;4788040;29;20285;-61
2022/04/09 02:10:34;;;;;;;18.67;11.00;;;;;;;13.38;61.86;98573.19;4787899;29;20241;-61
2022/04/09 02:13:02;;;;;;;11.00;8.37;;;;;;;13.40;61.71;98570.63;4787821;29;20205;-61
2022/04/09 02:15:30;;;;;;;15.13;9.60;;;;;;;13.33;61.77;98556.91;4788052;29;20361;-61
2022/04/09 02:17:57;;;;;;;15.67;10.00;;;;;;;13.37;61.49;98556.03;4787794;30;20202;-61
2022/04/09 02:20:24;;;;;;;14.77;10.70;;;;;;;13.29;61.87;98556.97;4787860;30;20320;-61
2022/04/09 02:22:51;;;;;;;22.93;14.50;;;;;;;13.32;61.65;98554.38;4787768;30;20286;-61
2022/04/09 02:25:18;;;;;;;21.93;13.13;;;;;;;13.23;62.04;98554.44;4787874;30;20229;-61
2022/04/09 02:27:45;;;;;;;19.77;13.73;;;;;;;13.18;62.30;98556.22;4787523;30;20202;-61
2022/04/09 02:30:13;;;;;;;25.47;16.70;;;;;;;13.16;62.23;98558.78;4787579;30;20198;-61
2022/04/09 02:32:46;;;;;;;28.80;17.40;;;;;;;13.19;62.16;98560.47;4787576;30;20702;-61
2022/04/09 02:35:14;;;;;;;29.63;17.70;;;;;;;13.22;61.84;98551.00;4787555;30;20288;-61
2022/04/09 02:37:41;;;;;;;33.50;18.27;;;;;;;13.27;61.42;98543.22;4786617;29;20248;-61
2022/04/09 02:40:09;;;;;;;31.20;18.37;;;;;;;13.30;61.53;98548.34;4787421;30;20213;-60
2022/04/09 02:42:37;;;;;;;33.85;20.52;;;;;;;13.28;61.63;98550.94;4787154;30;20496;-61
2022/04/09 02:45:05;;;;;;;34.20;20.00;;;;;;;13.32;61.58;98557.78;4787302;30;20230;-61
2022/04/09 02:47:32;;;;;;;33.40;19.83;;;;;;;13.08;61.88;98516.75;4787374;29;20744;-61
2022/04/09 02:50:02;;;;;;;32.17;20.10;;;;;;;13.23;62.03;98552.72;4787177;30;20200;-61
2022/04/09 02:52:34;;;;;;;32.57;20.13;;;;;;;13.17;61.88;98541.59;4787395;30;20640;-61
2022/04/09 02:55:01;;;;;;;32.77;20.13;;;;;;;13.19;62.12;98545.00;4787179;29;20205;-61
2022/04/09 02:57:28;;;;;;;31.30;20.43;;;;;;;13.17;62.18;98550.19;4787368;29;20205;-61
2022/04/09 02:59:55;;;;;;;32.57;19.97;;;;;;;13.11;62.73;98542.50;4786930;30;20220;-61
2022/04/09 03:02:22;;;;;;;33.97;20.13;;;;;;;12.92;62.02;98504.84;4787063;30;20210;-62
2022/04/09 03:04:49;;;;;;;36.23;20.47;;;;;;;13.09;62.75;98544.25;4786947;29;20229;-60
2022/04/09 03:07:17;;;;;;;31.40;19.70;;;;;;;13.14;62.78;98546.78;4787125;30;20704;-61
2022/04/09 03:09:44;;;;;;;33.70;19.07;;;;;;;13.10;62.98;98547.69;4786891;29;20227;-61
2022/04/09 03:12:12;;;;;;;33.90;20.63;;;;;;;13.08;62.64;98549.41;4786891;30;20205;-60
2022/04/09 03:14:39;;;;;;;27.73;20.37;;;;;;;13.03;62.94;98552.88;4787135;30;20213;-60
2022/04/09 03:17:06;;;;;;;32.03;19.33;;;;;;;13.02;63.18;98551.13;4786779;29;20237;-61
2022/04/09 03:19:32;;;;;;;27.23;17.33;;;;;;;13.12;62.47;98546.81;4786750;30;20210;-61
2022/04/09 03:21:59;;;;;;;32.00;19.10;;;;;;;13.21;62.17;98543.28;4786632;30;20698;-61
2022/04/09 03:24:29;;;;;;;32.50;19.30;;;;;;;13.23;61.78;98546.69;4786902;30;20292;-61
2022/04/09 03:26:56;;;;;;;29.77;18.00;;;;;;;13.13;62.39;98543.34;4786779;30;20208;-61
2022/04/09 03:29:23;;;;;;;32.00;17.53;;;;;;;13.05;62.65;98542.53;4786679;29;20229;-57
2022/04/09 03:31:50;;;;;;;27.73;17.60;;;;;;;12.87;62.79;98542.69;4786784;30;20690;-58
2022/04/09 03:34:17;;;;;;;29.77;17.10;;;;;;;12.80;63.51;98551.34;4786613;30;20294;-57
2022/04/09 03:36:44;;;;;;;33.53;19.48;;;;;;;12.71;63.85;98547.13;4785959;30;20481;-57
2022/04/09 03:39:11;;;;;;;28.87;17.43;;;;;;;12.62;64.10;98542.03;4786543;30;20208;-58
2022/04/09 03:41:39;;;;;;;26.00;15.70;;;;;;;12.63;63.76;98537.72;4786390;30;20233;-58
2022/04/09 03:44:06;;;;;;;26.10;16.40;;;;;;;12.70;63.80;98542.81;4786583;29;20300;-58
2022/04/09 03:46:33;;;;;;;22.20;14.80;;;;;;;12.74;64.10;98546.25;4786788;30;20233;-57
2022/04/09 03:49:00;;;;;;;20.43;14.90;;;;;;;12.79;64.04;98532.44;4786309;30;20214;-58
2022/04/09 03:51:26;;;;;;;22.00;14.43;;;;;;;12.77;63.68;98529.00;4786491;29;20674;-58
2022/04/09 03:53:53;;;;;;;24.47;14.83;;;;;;;12.74;63.64;98533.34;4786499;29;20198;-58
2022/04/09 03:56:21;;;;;;;25.40;15.10;;;;;;;12.73;63.65;98542.81;4786419;29;20193;-58
2022/04/09 03:58:50;;;;;;;22.77;14.83;;;;;;;12.77;63.96;98538.50;4786317;30;20640;-58
2022/04/09 04:01:17;;;;;;;26.37;16.47;;;;;;;12.79;63.90;98536.75;4785553;29;20210;-58
2022/04/09 04:03:44;;;;;;;26.70;15.27;;;;;;;12.92;63.42;98533.19;4786105;30;20208;-58
2022/04/09 04:06:11;;;;;;;26.23;15.70;;;;;;;13.02;62.79;98532.22;4785262;29;20646;-59
2022/04/09 04:08:38;;;;;;;26.13;16.60;;;;;;;13.03;63.08;98537.41;4797304;29;20626;-59
2022/04/09 04:11:05;;;;;;;22.07;14.40;;;;;;;13.08;62.63;98541.66;4803421;29;20283;-58
2022/04/09 04:13:33;;;;;;;24.87;15.10;;;;;;;13.04;62.36;98540.84;4803611;29;20237;-62
2022/04/09 04:16:03;;;;;;;26.67;14.90;;;;;;;13.01;62.96;98540.84;4804346;29;20266;-61
2022/04/09 04:18:30;;;;;;;21.80;15.33;;;;;;;13.14;62.66;98546.78;4787994;29;20211;-62
2022/04/09 04:20:56;;;;;;;23.47;15.10;;;;;;;13.19;62.63;98545.88;4785613;29;20209;-61
2022/04/09 04:23:23;;;;;;;27.73;15.60;;;;;;;13.27;62.51;98540.63;4785832;29;20205;-60
2022/04/09 04:25:50;;;;;;;21.57;13.63;;;;;;;13.29;62.01;98541.50;4785759;29;20228;-62
2022/04/09 04:28:17;;;;;;;18.43;12.90;;;;;;;13.38;61.99;98543.94;4785923;30;20206;-61
2022/04/09 04:30:44;;;;;;;25.30;13.77;;;;;;;13.47;61.85;98560.22;4800588;29;20288;-62
2022/04/09 04:33:13;;;;;;;27.03;13.93;;;;;;;13.43;61.66;98560.28;4803649;29;20201;-61
2022/04/09 04:35:39;;;;;;;15.87;11.13;;;;;;;13.21;61.50;98562.19;4803723;29;20205;-61
2022/04/09 04:38:06;;;;;;;13.23;9.50;;;;;;;12.90;61.61;98568.44;4803408;29;20705;-61
2022/04/09 04:40:33;;;;;;;12.13;10.23;;;;;;;12.99;62.08;98566.63;4803348;29;20296;-61
2022/04/09 04:43:00;;;;;;;17.90;9.00;;;;;;;13.04;62.07;98556.31;4801606;29;20288;-61
2022/04/09 04:45:27;;;;;;;15.93;9.53;;;;;;;13.14;61.55;98557.09;4785226;30;20232;-62
2022/04/09 04:47:54;;;;;;;16.97;9.67;;;;;;;13.19;61.33;98556.19;4777111;30;20219;-61
2022/04/09 04:50:23;;;;;;;11.17;8.33;;;;;;;13.25;61.01;98558.72;4769716;30;20213;-61
2022/04/09 04:52:50;;;;;;;14.60;7.83;;;;;;;13.13;60.64;98534.78;4785120;30;20288;-61
2022/04/09 04:55:17;;;;;;;15.60;7.87;;;;;;;13.15;60.29;98533.88;4785467;30;20208;-61
2022/04/09 04:57:46;;;;;;;12.13;7.50;;;;;;;13.31;60.16;98560.38;4785093;30;20198;-61
2022/04/09 05:00:17;;;;;;;14.40;7.93;;;;;;;13.42;59.49;98562.00;4784989;30;20209;-61
2022/04/09 05:02:45;;;;;;;14.73;8.00;;;;;;;13.42;59.19;98566.28;4785227;29;20205;-61
2022/04/09 05:05:12;;;;;;;13.13;8.57;;;;;;;13.33;59.34;98563.78;4776992;29;20237;-61
2022/04/09 05:07:44;;;;;;;12.67;8.47;;;;;;;13.38;59.28;98559.44;4785654;30;20205;-61
2022/04/09 05:10:13;;;;;;;15.37;8.70;;;;;;;13.37;59.14;98563.75;4795379;29;20683;-57
2022/04/09 05:12:40;;;;;;;16.60;8.27;;;;;;;13.24;59.65;98556.16;4803218;29;20201;-58
2022/04/09 05:15:09;;;;;;;14.80;9.93;;;;;;;13.42;60.14;98554.25;4803162;29;20197;-58
2022/04/09 05:17:36;;;;;;;17.00;10.90;;;;;;;13.20;60.77;98551.88;4791048;29;20209;-59
2022/04/09 05:20:04;;;;;;;14.10;9.93;;;;;;;13.28;60.64;98552.66;4775653;30;20211;-59
2022/04/09 05:22:31;;;;;;;10.57;9.37;;;;;;;13.29;60.16;98562.13;4782427;29;20202;-59
2022/04/09 05:25:00;;;;;;;15.20;9.87;;;;;;;13.26;60.58;98557.84;4792622;29;20217;-59
2022/04/09 05:27:27;;;;;;;14.47;10.20;;;;;;;13.25;60.64;98550.13;4794785;29;20205;-59
2022/04/09 05:29:54;;;;;;;14.83;8.93;;;;;;;13.30;60.79;98548.34;4792212;29;20197;-59
2022/04/09 05:32:22;;;;;;;14.57;10.37;;;;;;;13.35;60.45;98549.16;4792823;29;20202;-59
2022/04/09 05:34:49;;;;;;;17.17;9.70;;;;;;;13.40;60.76;98548.25;4792641;29;20694;-59
2022/04/09 05:37:17;;;;;;;17.13;10.33;;;;;;;13.44;60.74;98533.56;4790699;29;20288;-59
2022/04/09 05:39:44;;;;;;;24.43;11.17;;;;;;;13.54;60.14;98548.94;4784685;30;20291;-59
2022/04/09 05:42:12;;;;;;;18.93;11.10;;;;;;;13.55;60.40;98544.63;4784868;30;20209;-58
2022/04/09 05:44:40;;;;;;;16.73;11.23;;;;;;;13.56;59.87;98546.34;4789203;29;20207;-58
2022/04/09 05:47:07;;;;;;;16.80;9.73;;;;;;;13.59;59.62;98538.59;4784596;30;20221;-58
2022/04/09 05:49:34;;;;;;;17.47;12.67;;;;;;;13.60;60.03;98537.69;4784325;30;20229;-58
2022/04/09 05:52:00;;;;;;;17.53;9.80;;;;;;;13.68;59.40;98540.22;4786980;29;20201;-58
2022/04/09 05:54:27;;;;;;;21.27;9.00;;;;;;;13.83;59.24;98545.19;4791743;29;20231;-59
2022/04/09 05:56:54;;;;;;;14.87;9.27;;;;;;;13.91;58.63;98538.19;4796806;29;20205;-59
2022/04/09 05:59:25;;;;;;;9.33;8.30;;;;;;;14.03;58.53;98538.91;4802676;29;20207;-59
2022/04/09 06:01:53;;;;;;;10.57;7.83;;;;;;;14.14;57.78;98536.19;4802864;29;20207;-59
2022/04/09 06:04:20;;;;;;;12.90;7.03;;;;;;;14.18;57.36;98540.41;4802835;29;20213;-58
2022/04/09 06:06:47;;;;;;;10.30;7.60;;;;;;;14.18;57.62;98537.84;4802862;29;20620;-57
2022/04/09 06:09:14;;;;;;;8.40;7.13;;;;;;;14.31;57.28;98530.78;4802883;29;20627;-59
2022/04/09 06:11:42;;;;;;;9.97;7.40;;;;;;;14.13;57.35;98519.81;4802792;29;20208;-59
2022/04/09 06:14:09;;;;;;;8.33;6.80;;;;;;;14.32;57.49;98525.63;4804512;29;20577;-58
2022/04/09 06:16:40;;;;;;;10.45;8.25;;;;;;;14.34;56.85;98518.69;4804782;29;20459;-58
2022/04/09 06:19:07;;;;;;;13.77;7.50;;;;;;;14.40;56.87;98516.03;4805906;29;20549;-60
2022/04/09 06:21:35;;;;;;;13.57;7.90;;;;;;;14.12;57.30;98494.00;4805775;29;20221;-59
2022/04/09 06:24:02;;;;;;;10.53;7.27;;;;;;;14.14;57.17;98493.13;4805492;29;20210;-59
2022/04/09 06:26:29;;;;;;;10.50;8.57;;;;;;;14.16;57.67;98524.09;4805447;29;20234;-59
2022/04/09 06:28:56;;;;;;;9.47;7.50;;;;;;;13.93;58.42;98501.16;4805375;29;20201;-59
2022/04/09 06:31:23;;;;;;;11.87;8.50;;;;;;;14.17;58.24;98525.81;4801281;29;20693;-59
2022/04/09 06:33:53;;;;;;;11.30;8.33;;;;;;;13.65;58.76;98432.69;4795811;29;20209;-58
2022/04/09 06:36:19;;;;;;;15.10;10.27;;;;;;;14.22;58.60;98513.69;4796361;29;20198;-58
2022/04/09 06:38:46;;;;;;;17.20;11.90;;;;;;;14.20;58.98;98516.28;4794860;29;20202;-59
2022/04/09 06:41:14;;;;;;;40.67;28.30;;;;;;;14.28;58.53;98508.44;4796384;29;20204;-59
2022/04/09 06:43:40;;;;;;;25.93;20.27;;;;;;;14.28;59.24;98513.59;4791828;29;20190;-59
2022/04/09 06:46:08;;;;;;;22.50;16.93;;;;;;;14.28;59.75;98511.03;4778331;29;20234;-59
2022/04/09 06:48:35;;;;;;;19.47;14.43;;;;;;;14.35;60.33;98515.25;4778414;30;20219;-59
2022/04/09 06:51:03;;;;;;;21.40;14.00;;;;;;;14.55;60.36;98515.81;4787040;29;20210;-60
2022/04/09 06:53:30;;;;;;;19.73;12.17;;;;;;;14.63;60.11;98513.94;4783421;29;20587;-58
2022/04/09 06:55:57;;;;;;;19.33;12.63;;;;;;;14.83;59.46;98517.94;4773925;29;20203;-59
2022/04/09 06:58:24;;;;;;;16.70;12.43;;;;;;;14.84;59.81;98515.31;4780854;29;20193;-59
2022/04/09 07:00:51;;;;;;;14.53;12.20;;;;;;;14.94;59.09;98518.63;4791408;29;20201;-59
2022/04/09 07:03:18;;;;;;;16.17;12.67;;;;;;;15.02;59.13;98514.19;4786985;30;20614;-59
2022/04/09 07:05:45;;;;;;;19.83;12.20;;;;;;;15.16;58.62;98513.03;4773102;29;20237;-59
2022/04/09 07:08:13;;;;;;;14.75;11.18;;;;;;;15.26;57.56;98518.91;4782401;30;20469;-59
2022/04/09 07:10:40;;;;;;;14.93;9.63;;;;;;;15.35;57.30;98517.00;4786465;30;20195;-59
2022/04/09 07:13:07;;;;;;;15.83;8.90;;;;;;;15.50;56.82;98509.84;4786558;29;20210;-60
2022/04/09 07:15:34;;;;;;;9.40;7.43;;;;;;;15.62;56.59;98513.09;4785663;29;20219;-60
2022/04/09 07:18:01;;;;;;;18.90;7.97;;;;;;;15.73;56.09;98498.19;4788586;29;20198;-60
2022/04/09 07:20:29;;;;;;;6.33;5.20;;;;;;;15.72;54.02;98506.81;4792137;29;20205;-59
2022/04/09 07:22:56;;;;;;;8.70;5.60;;;;;;;15.83;54.89;98497.09;4777334;29;20308;-60
2022/04/09 07:25:24;;;;;;;8.10;6.17;;;;;;;15.94;55.47;98492.53;4785717;29;20208;-60
2022/04/09 07:27:51;;;;;;;9.83;6.43;;;;;;;16.08;55.49;98496.56;4786275;30;20227;-60
2022/04/09 07:30:20;;;;;;;9.73;6.47;;;;;;;16.23;55.19;98493.66;4785171;29;20631;-59
2022/04/09 07:32:48;;;;;;;10.67;5.83;;;;;;;16.38;53.81;98503.66;4784933;29;20667;-59
2022/04/09 07:35:16;;;;;;;7.30;5.43;;;;;;;16.40;53.27;98507.94;4785049;29;20291;-59
2022/04/09 07:37:44;;;;;;;11.20;5.80;;;;;;;16.64;54.37;98508.28;4785184;30;20230;-59
2022/04/09 07:40:13;;;;;;;9.63;5.60;;;;;;;16.94;54.23;98511.00;4784569;30;20206;-60
2022/04/09 07:42:44;;;;;;;12.10;5.83;;;;;;;17.10;52.96;98499.34;4785661;30;20375;-59
2022/04/09 07:45:11;;;;;;;8.57;5.37;;;;;;;17.25;52.83;98505.84;4785625;30;20206;-59
2022/04/09 07:47:38;;;;;;;9.57;5.20;;;;;;;17.41;52.01;98503.72;4785799;30;20230;-59
2022/04/09 07:50:09;;;;;;;9.03;5.60;;;;;;;17.51;51.15;98500.81;4785575;30;20205;-60
2022/04/09 07:52:36;;;;;;;10.03;6.07;;;;;;;17.58;49.91;98501.50;4785599;30;20257;-59
2022/04/09 07:55:03;;;;;;;7.83;5.57;;;;;;;17.46;49.85;98496.66;4785610;29;20678;-60
2022/04/09 07:57:30;;;;;;;7.63;5.83;;;;;;;17.63;49.51;98495.31;4784893;29;20228;-60
2022/04/09 07:59:58;;;;;;;8.80;5.83;;;;;;;17.82;49.27;98494.78;4784354;30;20664;-60
2022/04/09 08:02:26;;;;;;;7.63;6.37;;;;;;;17.91;49.84;98494.53;4784311;29;20700;-60
2022/04/09 08:04:53;;;;;;;9.17;5.80;;;;;;;17.96;49.82;98493.50;4785601;30;20563;-60
2022/04/09 08:07:20;;;;;;;8.77;6.00;;;;;;;18.11;49.75;98485.25;4785614;30;20228;-60
2022/04/09 08:09:46;;;;;;;7.87;5.47;;;;;;;18.04;50.01;98483.75;4785301;29;20205;-60
2022/04/09 08:12:15;;;;;;;12.93;5.40;;;;;;;18.06;50.37;98476.72;4785511;30;20236;-60
2022/04/09 08:14:42;;;;;;;6.90;6.10;;;;;;;18.21;50.49;98467.63;4785633;30;20304;-60
2022/04/09 08:17:11;;;;;;;6.87;6.17;;;;;;;18.31;49.52;98461.22;4785758;30;20213;-60
2022/04/09 08:19:38;;;;;;;8.93;6.30;;;;;;;18.58;49.57;98462.13;4785228;30;20237;-62
2022/04/09 08:22:06;;;;;;;7.00;6.30;;;;;;;18.74;49.06;98463.34;4785210;30;20597;-61
2022/04/09 08:24:33;;;;;;;8.77;5.87;;;;;;;18.82;47.87;98469.97;4785003;29;20289;-61
2022/04/09 08:27:00;;;;;;;7.67;6.20;;;;;;;18.77;48.55;98466.69;4785378;29;20664;-62
2022/04/09 08:29:27;;;;;;;9.40;6.70;;;;;;;18.97;48.87;98454.75;4785227;29;20205;-62
2022/04/09 08:31:54;;;;;;;8.17;6.30;;;;;;;19.15;48.34;98459.31;4785396;30;20194;-61
2022/04/09 08:34:22;;;;;;;9.80;5.87;;;;;;;19.31;47.21;98448.31;4784992;30;20211;-61
2022/04/09 08:36:49;;;;;;;11.27;6.17;;;;;;;19.43;46.45;98441.84;4784432;29;20269;-61
2022/04/09 08:39:16;;;;;;;7.13;5.63;;;;;;;19.58;45.72;98440.47;4785078;29;20244;-61
2022/04/09 08:41:44;;;;;;;8.37;7.00;;;;;;;19.78;45.50;98435.34;4785081;30;20214;-61
2022/04/09 08:44:13;;;;;;;7.87;5.77;;;;;;;19.96;45.19;98432.06;4784933;30;20223;-61
2022/04/09 08:46:41;;;;;;;7.97;6.07;;;;;;;19.92;44.43;98406.97;4784436;30;20221;-61
2022/04/09 08:49:10;;;;;;;6.80;5.50;;;;;;;20.25;44.32;98416.13;4784764;30;20272;-61
2022/04/09 08:51:38;;;;;;;10.10;5.63;;;;;;;20.23;44.12;98415.31;4785029;29;21024;-62
2022/04/09 08:54:05;;;;;;;9.90;6.40;;;;;;;20.36;43.88;98424.38;4784812;29;20559;-61
2022/04/09 08:56:34;;;;;;;7.70;5.23;;;;;;;20.47;43.27;98419.56;4784885;29;20198;-61
2022/04/09 08:59:02;;;;;;;7.03;5.00;;;;;;;20.48;42.83;98425.66;4784769;30;20210;-62
2022/04/09 09:01:30;;;;;;;9.07;5.20;;;;;;;20.64;42.45;98424.09;4784707;30;20201;-62
2022/04/09 09:03:58;;;;;;;9.13;5.23;;;;;;;20.72;42.35;98416.81;4785026;29;20216;-61
2022/04/09 09:06:28;;;;;;;12.00;5.20;;;;;;;20.84;41.53;98413.69;4784470;30;20236;-61
2022/04/09 09:08:57;;;;;;;5.00;4.50;;;;;;;20.90;40.88;98417.81;4784745;30;20206;-61
2022/04/09 09:11:24;;;;;;;5.57;4.47;;;;;;;20.86;41.08;98408.41;4783763;29;20202;-61
2022/04/09 09:13:53;;;;;;;8.77;5.20;;;;;;;20.82;41.29;98407.66;4783521;29;20197;-62
2022/04/09 09:16:25;;;;;;;12.87;6.23;;;;;;;20.92;42.33;98408.13;4784550;30;20206;-61
2022/04/09 09:18:53;;;;;;;12.87;7.40;;;;;;;20.90;41.27;98399.53;4784650;30;20213;-61
2022/04/09 09:21:23;;;;;;;6.00;5.40;;;;;;;21.16;40.34;98405.34;4784544;29;20297;-61
2022/04/09 09:23:51;;;;;;;7.10;5.07;;;;;;;21.33;40.30;98398.53;4784590;30;20205;-61
2022/04/09 09:26:23;;;;;;;6.70;5.40;;;;;;;21.39;40.36;98393.88;4784522;30;20205;-61
2022/04/09 09:28:57;;;;;;;8.27;7.30;;;;;;;21.45;41.07;98393.59;4784518;30;20238;-61
2022/04/09 09:31:44;;;;;;;8.40;6.10;;;;;;;21.61;40.91;98392.00;4784644;30;20206;-62
2022/04/09 09:34:12;;;;;;;7.30;6.60;;;;;;;21.17;40.59;98312.16;4783296;29;20216;-59
2022/04/09 09:36:40;;;;;;;6.23;5.53;;;;;;;21.60;40.78;98384.22;4784573;30;20898;-59
2022/04/09 09:39:08;;;;;;;9.27;6.07;;;;;;;21.64;41.04;98381.41;4784659;30;20682;-59
2022/04/09 09:41:47;;;;;;;6.93;4.90;;;;;;;21.76;39.44;98379.97;4784695;30;20204;-59
2022/04/09 09:44:14;;;;;;;6.60;5.07;;;;;;;21.86;39.25;98377.78;4784654;30;20637;-59
2022/04/09 09:46:42;;;;;;;12.43;5.50;;;;;;;21.92;38.25;98373.13;4784537;29;20233;-59
2022/04/09 09:49:09;;;;;;;5.43;4.47;;;;;;;21.89;37.58;98360.22;4787604;29;20665;-59
2022/04/09 09:51:36;;;;;;;6.17;4.90;;;;;;;21.89;37.37;98341.91;4787489;29;20212;-59
2022/04/09 09:54:07;;;;;;;6.33;4.10;;;;;;;22.14;35.96;98370.34;4787786;29;20209;-61
2022/04/09 09:56:38;;;;;;;6.33;3.87;;;;;;;22.25;35.98;98360.19;4785769;29;20213;-61
2022/04/09 09:59:07;;;;;;;5.10;4.43;;;;;;;22.36;35.99;98357.91;4787393;29;20708;-61
2022/04/09 10:01:37;;;;;;;5.70;4.83;;;;;;;22.37;35.83;98349.13;4787134;29;20221;-62
2022/04/09 10:04:05;;;;;;;6.10;4.87;;;;;;;22.42;36.40;98356.75;4787628;29;20220;-62
2022/04/09 10:06:34;;;;;;;7.60;4.80;;;;;;;22.57;36.52;98354.22;4787444;29;20274;-62
2022/04/09 10:09:01;;;;;;;6.23;4.60;;;;;;;22.66;37.17;98345.91;4787122;29;20210;-61
2022/04/09 10:11:29;;;;;;;9.10;4.77;;;;;;;22.81;37.38;98339.06;4786767;30;20202;-62
2022/04/09 10:13:58;;;;;;;6.43;4.83;;;;;;;22.92;35.61;98334.97;4786731;30;20673;-61
2022/04/09 10:16:27;;;;;;;6.97;4.90;;;;;;;22.91;35.58;98330.66;4786782;29;20266;-62
2022/04/09 10:19:00;;;;;;;7.97;6.13;;;;;;;22.98;35.73;98325.94;4786704;29;20635;-62
2022/04/09 10:21:27;;;;;;;9.87;5.77;;;;;;;22.91;35.82;98327.19;4786657;29;20573;-62
2022/04/09 10:23:56;;;;;;;11.87;7.23;;;;;;;22.80;35.98;98319.03;4786813;29;20198;-60
2022/04/09 10:26:23;;;;;;;9.80;5.30;;;;;;;22.75;35.94;98323.66;4787062;29;20202;-60
2022/04/09 10:28:51;;;;;;;5.57;4.10;;;;;;;22.63;35.66;98312.06;4786510;29;20209;-61
2022/04/09 10:31:36;;;;;;;6.63;4.70;;;;;;;22.76;35.72;98309.66;4786736;29;20705;-59
2022/04/09 10:34:06;;;;;;;6.90;4.90;;;;;;;22.78;35.37;98308.66;4786914;29;20197;-60
2022/04/09 10:37:04;;;;;;;6.77;4.13;;;;;;;22.78;35.56;98300.78;4786781;29;20275;-59
2022/04/09 10:39:53;;;;;;;6.80;3.97;;;;;;;22.81;35.48;98298.00;4786743;29;20296;-60
2022/04/09 10:42:51;;;;;;;5.23;3.23;;;;;;;22.78;35.84;98290.31;4786947;30;20666;-60
2022/04/09 10:45:18;;;;;;;4.77;3.77;;;;;;;22.87;35.19;98286.38;4786706;30;20240;-60
2022/04/09 10:48:10;;;;;;;5.70;4.17;;;;;;;22.91;35.32;98282.63;4786745;29;20229;-60
2022/04/09 10:50:58;;;;;;;5.90;3.70;;;;;;;23.02;35.51;98277.69;4786933;29;20205;-60
2022/04/09 10:53:27;;;;;;;8.43;4.50;;;;;;;23.15;35.48;98281.38;4786686;30;20205;-59
2022/04/09 10:56:20;;;;;;;3.93;3.50;;;;;;;23.30;35.76;98275.28;4786581;30;20212;-60
2022/04/09 10:59:09;;;;;;;8.17;3.70;;;;;;;23.36;35.69;98281.97;4785849;29;20697;-60
2022/04/09 11:01:52;;;;;;;5.23;3.70;;;;;;;23.51;34.72;98278.53;4780758;29;20285;-60
2022/04/09 11:04:53;;;;;;;4.13;3.40;;;;;;;23.41;34.98;98270.31;4779465;30;20206;-59
2022/04/09 11:07:22;;;;;;;4.63;3.27;;;;;;;23.52;34.77;98274.97;4720415;30;20211;-60
2022/04/09 11:09:54;;;;;;;7.67;3.20;;;;;;;23.58;34.87;98272.00;4722986;30;20203;-59
2022/04/09 11:12:24;;;;;;;2.77;2.57;;;;;;;23.54;34.26;98269.66;4756916;29;20204;-60
2022/04/09 11:14:52;;;;;;;4.30;3.00;;;;;;;23.48;34.67;98268.22;4791820;29;20273;-58
2022/04/09 11:17:30;;;;;;;3.83;3.03;;;;;;;23.79;34.27;98257.69;4789621;29;20203;-59
2022/04/09 11:20:04;;;;;;;6.00;3.23;;;;;;;24.14;33.39;98258.34;4783136;29;20368;-59
2022/04/09 11:22:35;;;;;;;5.90;3.37;;;;;;;24.38;33.17;98266.53;4789498;29;20277;-60
2022/04/09 11:25:03;;;;;;;4.70;3.10;;;;;;;24.48;32.42;98234.38;4787243;29;20214;-60
2022/04/09 11:27:31;;;;;;;10.77;5.73;;;;;;;24.95;32.16;98262.22;4784723;29;20308;-60
2022/04/09 11:29:58;;;;;;;4.80;3.80;;;;;;;25.22;32.11;98276.28;4779854;29;20198;-60
2022/04/09 11:32:26;;;;;;;10.87;4.07;;;;;;;25.53;31.73;98268.19;4791694;29;20204;-62